^^
Station Historical Data
Daily Summary for July 27, 2017 Units:  Metric    English   Both
« Previous Day
Next Day »
Daily Weekly Monthly Yearly Custom
  High: Low: Average:
Temperature: 24.7 °C 3.9 °C 12.3 °C
Dew Point: -4.6 °C -7.6 °C -6.5 °C
Humidity: 45% 13% 29%
Wind Speed: 27.4km/h 0km/h 4.2km/h
Wind Gust: 30.6km/h - -
Wind- - North
Pressure: 1026.6 hPa 1021.2 hPa -
Precipitation: 0 mm    
Historical Graphs
 
 
Tabular Data for July 27, 2017
Time Temperature Dew Point Pressure Wind Wind Speed Wind Gust Humidity Rainfall Rate (Hourly) solar Conditions
01:02 8.2 °C -6 °C 1024.9 hPa Calm     36% 0 mm 0.0 W/m2
01:07 8.4 °C -6.2 °C 1024.9 hPa Calm     35% 0 mm 0.0 W/m2
01:12 8.4 °C -6.6 °C 1024.9 hPa Calm     34% 0 mm 0.0 W/m2
01:18 8.1 °C -6.5 °C 1024.9 hPa Calm     35% 0 mm 0.0 W/m2
01:23 7.8 °C -6.4 °C 1024.9 hPa Calm     36% 0 mm 0.0 W/m2
01:28 7.8 °C -6.4 °C 1024.9 hPa Calm     36% 0 mm 0.0 W/m2
01:33 7.6 °C -6.9 °C 1024.9 hPa Calm     35% 0 mm 0.0 W/m2
01:39 7.3 °C -6.8 °C 1024.6 hPa Calm     36% 0 mm 0.0 W/m2
01:44 7.1 °C -6.6 °C 1024.6 hPa Calm     37% 0 mm 0.0 W/m2
01:49 7.1 °C -6.6 °C 1024.6 hPa Calm     37% 0 mm 0.0 W/m2
01:54 7.3 °C -6.8 °C 1024.6 hPa Calm     36% 0 mm 0.0 W/m2
01:59 7.2 °C -6.9 °C 1024.6 hPa Calm     36% 0 mm 0.0 W/m2
02:04 7.1 °C -7 °C 1024.6 hPa Calm     36% 0 mm 0.0 W/m2
02:09 7.1 °C -6.6 °C 1024.6 hPa Calm     37% 0 mm 0.0 W/m2
02:15 6.9 °C -7.2 °C 1024.3 hPa Calm     36% 0 mm 0.0 W/m2
02:20 6.7 °C -7 °C 1024.6 hPa Calm     37% 0 mm 0.0 W/m2
02:25 6.7 °C -7 °C 1024.3 hPa Calm     37% 0 mm 0.0 W/m2
02:30 6.7 °C -7 °C 1024.3 hPa Calm     37% 0 mm 0.0 W/m2
02:36 6.5 °C -7.2 °C 1024.6 hPa Calm     37% 0 mm 0.0 W/m2
02:41 6.4 °C -6.9 °C 1024.6 hPa Calm     38% 0 mm 0.0 W/m2
02:46 6.3 °C -7 °C 1024.6 hPa Calm     38% 0 mm 0.0 W/m2
02:52 6.2 °C -7.1 °C 1024.3 hPa Calm     38% 0 mm 0.0 W/m2
02:57 6.3 °C -7 °C 1024.6 hPa Calm     38% 0 mm 0.0 W/m2
03:02 6.4 °C -6.9 °C 1024.6 hPa Calm     38% 0 mm 0.0 W/m2
03:07 6.3 °C -7.3 °C 1024.6 hPa Calm     37% 0 mm 0.0 W/m2
03:12 6.4 °C -6.6 °C 1024.6 hPa Calm     39% 0 mm 0.0 W/m2
03:17 6.7 °C -7 °C 1024.6 hPa Calm     37% 0 mm 0.0 W/m2
03:22 6.6 °C -7.1 °C 1024.6 hPa Calm     37% 0 mm 0.0 W/m2
03:27 6.6 °C -7.1 °C 1024.6 hPa Calm     37% 0 mm 0.0 W/m2
03:32 6.4 °C -7.2 °C 1024.3 hPa Calm     37% 0 mm 0.0 W/m2
03:38 6.4 °C -7.2 °C 1024.3 hPa Calm     37% 0 mm 0.0 W/m2
03:43 6.3 °C -7 °C 1024.3 hPa Calm     38% 0 mm 0.0 W/m2
03:48 6.4 °C -6.9 °C 1024.3 hPa Calm     38% 0 mm 0.0 W/m2
03:58 6.8 °C -6.5 °C 1024.6 hPa Calm     38% 0 mm 0.0 W/m2
04:14 7.2 °C -6.5 °C 1024.6 hPa Calm     37% 0 mm 0.0 W/m2
04:24 7.1 °C -6.6 °C 1024.6 hPa Calm     37% 0 mm 0.0 W/m2
04:30 6.8 °C -6.9 °C 1024.6 hPa Calm     37% 0 mm 0.0 W/m2
04:35 6.2 °C -7.1 °C 1024.6 hPa Calm     38% 0 mm 0.0 W/m2
04:40 5.7 °C -7.2 °C 1024.6 hPa Calm     39% 0 mm 0.0 W/m2
04:45 5.4 °C -7.1 °C 1024.6 hPa Calm     40% 0 mm 0.0 W/m2
04:51 5.2 °C -7.3 °C 1024.9 hPa Calm     40% 0 mm 0.0 W/m2
04:56 5 °C -7.2 °C 1024.9 hPa Calm     41% 0 mm 0.0 W/m2
05:01 4.8 °C -7.3 °C 1024.9 hPa Calm     41% 0 mm 0.0 W/m2
05:06 4.7 °C -7.4 °C 1024.9 hPa Calm     41% 0 mm 0.0 W/m2
05:12 4.4 °C -7.4 °C 1024.9 hPa Calm     42% 0 mm 0.0 W/m2
05:17 4.2 °C -7.6 °C 1024.9 hPa Calm     42% 0 mm 0.0 W/m2
05:23 4.1 °C -7.4 °C 1024.9 hPa Calm     43% 0 mm 0.0 W/m2
05:28 4 °C -7.2 °C 1024.9 hPa Calm     44% 0 mm 0.0 W/m2
05:33 4 °C -7.2 °C 1025.3 hPa Calm     44% 0 mm 0.0 W/m2
05:38 4 °C -7.2 °C 1025.3 hPa Calm     44% 0 mm 0.0 W/m2
05:43 3.9 °C -7.3 °C 1025.3 hPa Calm     44% 0 mm 0.0 W/m2
05:48 3.9 °C -7.3 °C 1025.3 hPa Calm     44% 0 mm 0.0 W/m2
05:53 3.9 °C -7 °C 1025.3 hPa Calm     45% 0 mm 0.0 W/m2
06:00 4.1 °C -7.1 °C 1025.3 hPa Calm     44% 0 mm 0.0 W/m2
06:10 4.3 °C -6.9 °C 1025.3 hPa Calm     44% 0 mm 0.0 W/m2
06:16 4.4 °C -6.8 °C 1025.6 hPa Calm     44% 0 mm 0.0 W/m2
06:24 4.6 °C -6.9 °C 1025.6 hPa Calm     43% 0 mm 0.0 W/m2
06:34 4.3 °C -7.5 °C 1025.6 hPa Calm     42% 0 mm 5.0 W/m2
06:39 4.1 °C -7.4 °C 1025.6 hPa Calm     43% 0 mm 7.0 W/m2
06:49 3.9 °C -7.3 °C 1025.6 hPa Calm     44% 0 mm 11.0 W/m2
06:54 4.1 °C -7.1 °C 1025.6 hPa Calm     44% 0 mm 12.0 W/m2
07:00 4.2 °C -7 °C 1025.6 hPa Calm     44% 0 mm 16.0 W/m2
07:05 4.2 °C -7 °C 1025.6 hPa Calm     44% 0 mm 18.0 W/m2
07:11 4.6 °C -6.3 °C 1025.6 hPa Calm     45% 0 mm 19.0 W/m2
07:16 5.1 °C -6.2 °C 1025.6 hPa Calm     44% 0 mm 28.0 W/m2
07:33 7.1 °C -5.6 °C 1025.6 hPa Calm     40% 0 mm 118.0 W/m2
07:40 8.6 °C -5.6 °C 1026 hPa Calm     36% 0 mm 155.0 W/m2
08:01 9.6 °C -5.9 °C 1026 hPa NNW 11.1 km/h 17.7 km/h 33% 0 mm 216.0 W/m2
08:17 10.4 °C -5.6 °C 1026 hPa Calm   8 km/h 32% 0 mm 260.0 W/m2
08:31 10.9 °C -6 °C 1026 hPa NNW 3.2 km/h 12.9 km/h 30% 0 mm 304.0 W/m2
08:41 11.4 °C -6 °C 1026.3 hPa NNW 11.1 km/h 17.7 km/h 29% 0 mm 332.0 W/m2
09:19 12.2 °C -6.3 °C 1026.6 hPa NNW 7.9 km/h 24.1 km/h 27% 0 mm 429.0 W/m2
09:28 12.6 °C -5.9 °C 1026.6 hPa NNW 1.4 km/h 14.5 km/h 27% 0 mm 455.0 W/m2
10:52 16 °C -5.7 °C 1026 hPa North 11.1 km/h 12.9 km/h 22% 0 mm 591.0 W/m2
11:06 16.4 °C -6 °C 1025.6 hPa North 6.4 km/h 12.9 km/h 21% 0 mm 606.0 W/m2
11:15 17 °C -5.5 °C 1025.3 hPa Calm   19.3 km/h 21% 0 mm 613.0 W/m2
11:26 17.5 °C -5.7 °C 1025.3 hPa Calm   20.9 km/h 20% 0 mm 622.0 W/m2
11:35 18.1 °C -5.9 °C 1024.9 hPa North 17.7 km/h 25.7 km/h 19% 0 mm 626.0 W/m2
12:13 19.8 °C -6 °C 1024.3 hPa North 1.4 km/h 27.4 km/h 17% 0 mm 631.0 W/m2
12:27 20.3 °C -6.4 °C 1023.6 hPa North 14.3 km/h 24.1 km/h 16% 0 mm 628.0 W/m2
12:36 20.5 °C -6.2 °C 1023.6 hPa North 24.1 km/h 24.1 km/h 16% 0 mm 622.0 W/m2
12:46 20.6 °C -6.1 °C 1023.2 hPa Calm   25.7 km/h 16% 0 mm 615.0 W/m2
12:57 20.9 °C -5.9 °C 1023.2 hPa North 22.7 km/h 30.6 km/h 16% 0 mm 606.0 W/m2
13:06 21.2 °C -5.6 °C 1022.9 hPa North 1.4 km/h 24.1 km/h 16% 0 mm 596.0 W/m2
13:17 21.5 °C -6.2 °C 1022.9 hPa North 27.4 km/h 27.4 km/h 15% 0 mm 580.0 W/m2
13:24 21.8 °C -6 °C 1022.6 hPa North 9.7 km/h 22.5 km/h 15% 0 mm 568.0 W/m2
13:33 22.2 °C -5.7 °C 1022.6 hPa North 13 km/h 24.1 km/h 15% 0 mm 552.0 W/m2
13:38 22.3 °C -6.5 °C 1022.2 hPa North 19.5 km/h 22.5 km/h 14% 0 mm 545.0 W/m2
13:43 22.4 °C -6.4 °C 1022.2 hPa North 11.1 km/h 24.1 km/h 14% 0 mm 540.0 W/m2
13:59 22.6 °C -6.3 °C 1021.9 hPa NNW 7.9 km/h 19.3 km/h 14% 0 mm 508.0 W/m2
14:09 22.9 °C -6 °C 1021.9 hPa NNW 13 km/h 20.9 km/h 14% 0 mm 489.0 W/m2
14:18 22.8 °C -6.1 °C 1021.9 hPa North 17.7 km/h 25.7 km/h 14% 0 mm 471.0 W/m2
14:31 22.9 °C -6 °C 1021.6 hPa North 11.1 km/h 19.3 km/h 14% 0 mm 448.0 W/m2
14:41 23.2 °C -5.8 °C 1021.6 hPa North 11.1 km/h 17.7 km/h 14% 0 mm 424.0 W/m2
14:51 23.3 °C -5.7 °C 1021.6 hPa North 13 km/h 19.3 km/h 14% 0 mm 397.0 W/m2
15:16 23.9 °C -5.2 °C 1021.2 hPa Calm   17.7 km/h 14% 0 mm 330.0 W/m2
15:26 24.2 °C -6 °C 1021.2 hPa North 14.3 km/h 20.9 km/h 13% 0 mm 304.0 W/m2
15:39 24.4 °C -5.8 °C 1021.2 hPa North 3.2 km/h 19.3 km/h 13% 0 mm 279.0 W/m2
15:53 24.7 °C -5.6 °C 1021.2 hPa North 17.7 km/h 20.9 km/h 13% 0 mm 230.0 W/m2
16:03 24.6 °C -5.7 °C 1021.2 hPa North 9.7 km/h 20.9 km/h 13% 0 mm 197.0 W/m2
16:14 24.6 °C -5.7 °C 1021.2 hPa North 13 km/h 17.7 km/h 13% 0 mm 160.0 W/m2
17:09 23.5 °C -4.6 °C 1021.6 hPa Calm   8 km/h 15% 0 mm 11.0 W/m2
17:16 23.1 °C -5 °C 1021.2 hPa Calm   8 km/h 15% 0 mm 5.0 W/m2
17:34 22.4 °C -4.7 °C 1021.2 hPa Calm   9.7 km/h 16% 0 mm 0.0 W/m2
17:42 21.9 °C -5.1 °C 1021.2 hPa Calm   9.7 km/h 16% 0 mm 0.0 W/m2
17:52 21.7 °C -5.2 °C 1021.6 hPa North 3.2 km/h 3.2 km/h 16% 0 mm 0.0 W/m2
18:27 19.4 °C -5.5 °C 1021.6 hPa Calm   9.7 km/h 18% 0 mm 0.0 W/m2
18:52 17.4 °C -5.8 °C 1021.6 hPa North 7.9 km/h 11.3 km/h 20% 0 mm 0.0 W/m2
20:22 15.4 °C -6.8 °C 1021.9 hPa Calm   9.7 km/h 21% 0 mm 0.0 W/m2
20:31 15.4 °C -6.8 °C 1021.9 hPa North 11.1 km/h 14.5 km/h 21% 0 mm 0.0 W/m2
20:57 15.4 °C -6.8 °C 1022.2 hPa North 6.4 km/h 11.3 km/h 21% 0 mm 0.0 W/m2
21:08 15.6 °C -6.7 °C 1022.2 hPa North 1.4 km/h 12.9 km/h 21% 0 mm 0.0 W/m2
21:20 15.1 °C -7.1 °C 1022.2 hPa North 9.7 km/h 12.9 km/h 21% 0 mm 0.0 W/m2
21:26 14.9 °C -6.6 °C 1022.2 hPa North 13 km/h 14.5 km/h 22% 0 mm 0.0 W/m2
21:37 15.4 °C -6.8 °C 1022.2 hPa North 6.4 km/h 14.5 km/h 21% 0 mm 0.0 W/m2
21:45 15.8 °C -6.5 °C 1022.2 hPa North 9.7 km/h 17.7 km/h 21% 0 mm 0.0 W/m2
21:51 16.1 °C -6.2 °C 1022.2 hPa North 9.7 km/h 12.9 km/h 21% 0 mm 0.0 W/m2
22:01 16.3 °C -6.1 °C 1022.2 hPa North 9.7 km/h 14.5 km/h 21% 0 mm 0.0 W/m2
22:09 16.4 °C -6.6 °C 1021.9 hPa North 9.7 km/h 14.5 km/h 20% 0 mm 0.0 W/m2
22:18 16.4 °C -6.6 °C 1022.2 hPa North 11.1 km/h 12.9 km/h 20% 0 mm 0.0 W/m2
22:23 16.4 °C -6.6 °C 1022.2 hPa North 9.7 km/h 12.9 km/h 20% 0 mm 0.0 W/m2
22:28 16.4 °C -6.6 °C 1022.2 hPa North 11.1 km/h 14.5 km/h 20% 0 mm 0.0 W/m2
22:33 16.4 °C -6.6 °C 1022.2 hPa North 9.7 km/h 14.5 km/h 20% 0 mm 0.0 W/m2
22:38 16.3 °C -6.7 °C 1022.2 hPa North 3.2 km/h 11.3 km/h 20% 0 mm 0.0 W/m2
22:49 16.6 °C -6.5 °C 1022.2 hPa Calm   12.9 km/h 20% 0 mm 0.0 W/m2
22:54 16.8 °C -6.3 °C 1021.9 hPa North 1.4 km/h 17.7 km/h 20% 0 mm 0.0 W/m2
23:04 17.2 °C -6 °C 1021.9 hPa North 13 km/h 19.3 km/h 20% 0 mm 0.0 W/m2
23:09 17.4 °C -6.5 °C 1021.9 hPa North 9.7 km/h 14.5 km/h 19% 0 mm 0.0 W/m2
23:14 17.3 °C -6.6 °C 1021.9 hPa North 7.9 km/h 14.5 km/h 19% 0 mm 0.0 W/m2
23:19 16.9 °C -6.2 °C 1022.2 hPa North 11.1 km/h 12.9 km/h 20% 0 mm 0.0 W/m2
23:25 16.7 °C -6.4 °C 1021.9 hPa North 6.4 km/h 11.3 km/h 20% 0 mm 0.0 W/m2
23:34 16.6 °C -6.5 °C 1021.9 hPa North 7.9 km/h 11.3 km/h 20% 0 mm 0.0 W/m2
23:39 16.6 °C -6.5 °C 1021.9 hPa North 6.4 km/h 12.9 km/h 20% 0 mm 0.0 W/m2
23:49 17 °C -6.1 °C 1021.9 hPa North 7.9 km/h 12.9 km/h 20% 0 mm 0.0 W/m2
23:54 17.4 °C -6.5 °C 1021.9 hPa North 11.1 km/h 20.9 km/h 19% 0 mm 0.0 W/m2
Canyon Roadhouse, Fishriver Canyon, Namibia
Compliments of Weather Underground - 2.25 mb